Time;durP1;ratioP1;P1;durP2;ratioP2;P2;SDS_P1;SDS_P2;PMS_P1;PMS_P2;Temp;Humidity;BMP_temperature;BMP_pressure;BME280_temperature;BME280_humidity;BME280_pressure;Samples;Min_cycle;Max_cycle;Signal;HPM_P1;HPM_P2
2021/04/10 00:00:23;;;;;;;26.33;24.77;;;12.80;53.50;;;;;;5133711;27;20499;-77
2021/04/10 00:02:50;;;;;;;28.27;25.73;;;12.70;53.40;;;;;;5133865;27;21302;-77
2021/04/10 00:05:18;;;;;;;24.90;23.50;;;12.70;53.10;;;;;;5134178;27;20447;-76
2021/04/10 00:07:45;;;;;;;24.30;22.87;;;12.70;53.30;;;;;;5133269;27;20948;-76
2021/04/10 00:10:14;;;;;;;24.30;22.90;;;12.70;53.10;;;;;;5132965;27;20475;-77
2021/04/10 00:12:40;;;;;;;24.93;23.20;;;12.60;53.20;;;;;;5133438;27;20491;-77
2021/04/10 00:15:10;;;;;;;24.17;22.77;;;12.50;53.50;;;;;;5133472;27;20527;-76
2021/04/10 00:17:36;;;;;;;25.07;23.40;;;12.50;53.60;;;;;;5133268;27;20535;-77
2021/04/10 00:20:06;;;;;;;24.07;22.57;;;12.50;54.10;;;;;;5133660;27;20487;-77
2021/04/10 00:22:32;;;;;;;24.90;23.20;;;12.50;53.90;;;;;;5133380;27;20538;-77
2021/04/10 00:24:59;;;;;;;25.03;23.63;;;12.50;53.90;;;;;;5133382;27;20539;-77
2021/04/10 00:27:26;;;;;;;24.83;23.30;;;12.50;53.70;;;;;;5133065;27;20447;-77
2021/04/10 00:29:52;;;;;;;25.47;23.77;;;12.50;54.10;;;;;;5133329;27;20468;-77
2021/04/10 00:32:19;;;;;;;24.67;23.13;;;12.40;54.60;;;;;;5133468;27;20444;-77
2021/04/10 00:34:45;;;;;;;26.63;24.80;;;12.40;54.80;;;;;;5133209;27;20479;-77
2021/04/10 00:37:11;;;;;;;24.33;22.93;;;12.40;55.10;;;;;;5132684;27;20511;-76
2021/04/10 00:39:38;;;;;;;24.57;23.07;;;12.40;54.70;;;;;;5133132;27;20483;-77
2021/04/10 00:42:05;;;;;;;24.30;22.80;;;12.40;54.50;;;;;;5133262;27;20527;-77
2021/04/10 00:44:32;;;;;;;23.77;22.47;;;12.50;53.90;;;;;;5133345;27;20451;-77
2021/04/10 00:46:59;;;;;;;23.87;22.47;;;12.60;53.70;;;;;;5132338;27;20542;-77
2021/04/10 00:49:25;;;;;;;24.00;22.50;;;12.60;53.60;;;;;;5133025;28;20447;-77
2021/04/10 00:51:51;;;;;;;23.57;22.27;;;12.60;53.30;;;;;;5133210;28;20538;-76
2021/04/10 00:54:18;;;;;;;24.20;22.50;;;12.70;53.30;;;;;;5133213;27;20535;-76
2021/04/10 00:56:45;;;;;;;24.00;22.50;;;12.70;53.10;;;;;;5132777;28;20455;-77
2021/04/10 00:59:11;;;;;;;24.93;23.17;;;12.70;52.90;;;;;;5132935;27;20554;-76
2021/04/10 01:01:39;;;;;;;24.37;22.83;;;12.80;52.60;;;;;;5133179;28;20486;-77
2021/04/10 01:04:05;;;;;;;24.23;22.83;;;12.90;52.00;;;;;;5132998;28;20483;-77
2021/04/10 01:06:32;;;;;;;23.47;22.17;;;12.90;52.10;;;;;;5132279;28;20512;-77
2021/04/10 01:08:59;;;;;;;23.97;22.67;;;13.00;52.00;;;;;;5132824;28;20525;-77
2021/04/10 01:11:36;;;;;;;24.73;23.37;;;13.00;52.00;;;;;;5132339;27;20882;-77
2021/04/10 01:14:11;;;;;;;23.90;22.50;;;12.90;52.10;;;;;;5132927;28;20455;-77
2021/04/10 01:16:44;;;;;;;27.43;24.73;;;12.90;52.00;;;;;;5132115;28;20458;-77
2021/04/10 01:19:27;;;;;;;23.70;22.40;;;13.00;51.90;;;;;;5132602;28;21048;-76
2021/04/10 01:22:05;;;;;;;23.90;22.63;;;13.10;51.70;;;;;;5133142;28;20504;-76
2021/04/10 01:24:41;;;;;;;23.90;22.50;;;13.10;51.70;;;;;;5136665;28;20447;-77
2021/04/10 01:27:36;;;;;;;23.80;22.43;;;13.10;51.80;;;;;;5139093;28;20928;-76
2021/04/10 01:30:08;;;;;;;23.80;22.40;;;13.20;51.60;;;;;;5133008;28;20539;-76
2021/04/10 01:32:40;;;;;;;23.90;22.40;;;13.20;51.60;;;;;;5132804;28;20443;-76
2021/04/10 01:35:10;;;;;;;23.93;22.43;;;13.20;52.00;;;;;;5132569;28;21016;-76
2021/04/10 01:37:43;;;;;;;24.10;22.50;;;13.20;51.80;;;;;;5132255;27;20443;-76
2021/04/10 01:40:14;;;;;;;23.50;22.27;;;13.20;51.70;;;;;;5132673;28;20511;-76
2021/04/10 01:42:41;;;;;;;23.50;22.20;;;13.30;51.70;;;;;;5132699;28;20790;-76
2021/04/10 01:45:10;;;;;;;24.20;22.70;;;13.30;51.60;;;;;;5132565;28;20900;-76
2021/04/10 01:47:38;;;;;;;23.20;21.70;;;13.40;51.70;;;;;;5132121;27;20986;-76
2021/04/10 01:50:05;;;;;;;24.00;22.50;;;13.30;51.70;;;;;;5132400;28;20471;-76
2021/04/10 01:52:33;;;;;;;24.03;22.40;;;13.30;51.90;;;;;;5132654;28;20837;-76
2021/04/10 01:55:00;;;;;;;23.37;22.03;;;13.20;51.90;;;;;;5132562;28;20455;-76
2021/04/10 01:57:28;;;;;;;23.13;21.90;;;13.20;52.00;;;;;;5132329;27;20490;-75
2021/04/10 01:59:57;;;;;;;23.57;22.27;;;13.20;52.10;;;;;;5136113;27;20473;-76
2021/04/10 02:02:25;;;;;;;23.90;22.30;;;13.20;52.10;;;;;;5136056;27;20454;-75
2021/04/10 02:04:52;;;;;;;23.30;22.00;;;13.20;52.20;;;;;;5136041;27;20459;-75
2021/04/10 02:07:22;;;;;;;23.20;22.00;;;13.30;52.30;;;;;;5135861;27;20489;-76
2021/04/10 02:09:51;;;;;;;23.67;22.27;;;13.20;52.20;;;;;;5135600;27;20473;-77
2021/04/10 02:12:20;;;;;;;23.40;22.20;;;13.20;52.40;;;;;;5136086;27;20459;-76
2021/04/10 02:14:47;;;;;;;23.80;22.50;;;13.10;52.50;;;;;;5135860;27;20876;-78
2021/04/10 02:17:16;;;;;;;24.10;22.70;;;13.20;52.60;;;;;;5135385;27;20455;-78
2021/04/10 02:19:43;;;;;;;23.10;21.80;;;13.20;52.50;;;;;;5135598;27;20535;-76
2021/04/10 02:22:10;;;;;;;22.93;21.53;;;13.20;52.60;;;;;;5136036;27;20940;-76
2021/04/10 02:24:36;;;;;;;23.30;21.93;;;13.20;52.70;;;;;;5135844;27;20507;-76
2021/04/10 02:27:03;;;;;;;24.63;23.07;;;13.20;52.80;;;;;;5135123;27;20447;-76
2021/04/10 02:29:31;;;;;;;23.90;22.60;;;13.10;52.90;;;;;;5135530;27;20554;-76
2021/04/10 02:32:05;;;;;;;22.90;21.70;;;13.10;52.90;;;;;;5135507;27;20832;-77
2021/04/10 02:34:34;;;;;;;23.73;22.33;;;13.10;53.00;;;;;;5135743;27;20931;-76
2021/04/10 02:37:02;;;;;;;23.80;22.40;;;13.10;53.00;;;;;;5135153;27;20557;-76
2021/04/10 02:39:29;;;;;;;24.40;22.90;;;13.10;53.10;;;;;;5135327;27;20511;-76
2021/04/10 02:42:00;;;;;;;23.70;22.20;;;13.10;53.20;;;;;;5135468;27;20494;-76
2021/04/10 02:44:34;;;;;;;23.73;22.10;;;13.20;53.20;;;;;;5135439;27;20491;-76
2021/04/10 02:47:05;;;;;;;23.50;22.03;;;13.10;53.20;;;;;;5134815;27;20443;-76
2021/04/10 02:49:37;;;;;;;23.23;21.93;;;13.00;53.50;;;;;;5135128;27;20972;-76
2021/04/10 02:52:06;;;;;;;24.20;22.80;;;13.00;53.60;;;;;;5135395;27;20462;-76
2021/04/10 02:54:36;;;;;;;24.50;22.90;;;13.00;53.70;;;;;;5135164;27;20541;-76
2021/04/10 02:57:08;;;;;;;23.80;22.40;;;13.00;53.70;;;;;;5134631;27;20471;-76
2021/04/10 02:59:39;;;;;;;23.43;22.23;;;13.00;53.90;;;;;;5135100;27;20501;-76
2021/04/10 03:02:06;;;;;;;24.03;22.63;;;13.00;54.10;;;;;;5134949;27;20454;-76
2021/04/10 03:04:33;;;;;;;24.53;23.03;;;12.90;54.70;;;;;;5135190;27;20448;-76
2021/04/10 03:07:00;;;;;;;23.83;22.60;;;13.00;54.20;;;;;;5134418;27;20447;-76
2021/04/10 03:09:28;;;;;;;23.50;22.20;;;13.00;54.00;;;;;;5134276;27;20980;-76
2021/04/10 03:11:55;;;;;;;23.73;22.43;;;12.90;54.20;;;;;;5134618;27;20583;-76
2021/04/10 03:14:22;;;;;;;24.07;22.53;;;13.00;54.10;;;;;;5134827;27;20546;-76
2021/04/10 03:16:50;;;;;;;23.90;22.60;;;13.00;54.30;;;;;;5133884;27;20884;-76
2021/04/10 03:19:17;;;;;;;24.20;22.73;;;13.00;54.30;;;;;;5134738;27;20471;-77
2021/04/10 03:21:43;;;;;;;23.70;22.40;;;13.10;54.50;;;;;;5134699;27;20884;-77
2021/04/10 03:24:11;;;;;;;24.53;23.03;;;13.00;54.50;;;;;;5134516;27;20892;-77
2021/04/10 03:26:39;;;;;;;23.70;22.50;;;13.00;54.60;;;;;;5134313;27;21181;-76
2021/04/10 03:29:06;;;;;;;24.70;23.20;;;13.00;54.50;;;;;;5134576;27;20528;-76
2021/04/10 03:31:34;;;;;;;24.70;22.93;;;13.00;54.30;;;;;;5134630;27;20452;-76
2021/04/10 03:34:00;;;;;;;24.60;23.10;;;13.00;54.60;;;;;;5134433;27;20462;-76
2021/04/10 03:36:27;;;;;;;24.90;23.43;;;13.00;54.90;;;;;;5133812;27;20443;-75
2021/04/10 03:38:54;;;;;;;24.30;22.67;;;13.10;54.70;;;;;;5134346;27;20558;-76
2021/04/10 03:41:22;;;;;;;23.60;22.10;;;13.00;55.00;;;;;;5134412;27;20547;-76
2021/04/10 03:43:50;;;;;;;24.13;22.73;;;13.00;55.10;;;;;;5134142;27;20940;-76
2021/04/10 03:46:16;;;;;;;23.40;22.10;;;13.00;55.20;;;;;;5133650;27;20447;-76
2021/04/10 03:48:43;;;;;;;25.30;23.67;;;13.00;55.60;;;;;;5134227;27;20454;-76
2021/04/10 03:51:09;;;;;;;24.50;22.87;;;13.00;56.00;;;;;;5133827;27;20467;-76
2021/04/10 03:53:35;;;;;;;23.07;21.87;;;13.00;56.70;;;;;;5134165;27;20448;-76
2021/04/10 03:56:02;;;;;;;23.77;22.30;;;12.90;57.10;;;;;;5133247;27;20439;-76
2021/04/10 03:58:28;;;;;;;24.00;22.50;;;12.90;57.00;;;;;;5133944;27;20465;-76
2021/04/10 04:00:56;;;;;;;23.57;22.13;;;12.90;57.30;;;;;;5134084;27;20507;-76
2021/04/10 04:03:22;;;;;;;23.70;22.23;;;13.00;57.70;;;;;;5133683;27;21019;-76
2021/04/10 04:05:48;;;;;;;24.37;23.00;;;13.00;58.00;;;;;;5133423;27;20451;-76
2021/04/10 04:08:15;;;;;;;23.27;22.00;;;13.00;58.00;;;;;;5133707;27;20481;-76
2021/04/10 04:10:41;;;;;;;23.90;22.47;;;13.00;58.20;;;;;;5133308;27;20475;-76
2021/04/10 04:13:08;;;;;;;23.13;21.93;;;12.90;58.00;;;;;;5133976;27;20542;-76
2021/04/10 04:15:34;;;;;;;23.50;22.20;;;12.80;58.40;;;;;;5133066;27;20483;-77
2021/04/10 04:18:01;;;;;;;24.17;22.80;;;12.90;58.90;;;;;;5133523;27;21027;-76
2021/04/10 04:20:28;;;;;;;24.80;23.30;;;12.80;59.00;;;;;;5132863;27;20491;-76
2021/04/10 04:22:54;;;;;;;24.90;23.43;;;12.80;59.30;;;;;;5133491;27;20654;-76
2021/04/10 04:25:21;;;;;;;24.73;23.23;;;12.70;59.30;;;;;;5133339;27;20480;-76
2021/04/10 04:27:47;;;;;;;23.60;22.30;;;12.80;59.30;;;;;;5133201;27;20928;-76
2021/04/10 04:30:14;;;;;;;23.90;22.60;;;12.80;59.40;;;;;;5133194;27;20493;-76
2021/04/10 04:32:41;;;;;;;23.90;22.67;;;12.80;59.40;;;;;;5133230;27;20454;-75
2021/04/10 04:35:09;;;;;;;24.10;22.60;;;12.70;59.30;;;;;;5133271;27;20461;-76
2021/04/10 04:37:36;;;;;;;24.50;22.93;;;12.80;59.30;;;;;;5132887;27;20530;-75
2021/04/10 04:40:03;;;;;;;24.50;22.77;;;12.80;59.30;;;;;;5133235;27;20951;-76
2021/04/10 04:42:29;;;;;;;26.03;24.47;;;12.80;59.20;;;;;;5133176;27;20578;-76
2021/04/10 04:44:55;;;;;;;24.10;22.80;;;12.70;59.40;;;;;;5133350;27;20451;-75
2021/04/10 04:47:22;;;;;;;25.77;24.00;;;12.60;59.60;;;;;;5132542;27;20505;-76
2021/04/10 04:49:48;;;;;;;23.93;22.63;;;12.60;59.60;;;;;;5133215;27;20468;-76
2021/04/10 04:52:15;;;;;;;24.03;22.40;;;12.60;59.30;;;;;;5133324;28;20449;-76
2021/04/10 04:54:42;;;;;;;24.50;23.10;;;12.60;59.30;;;;;;5133084;28;20451;-75
2021/04/10 04:57:08;;;;;;;24.60;23.10;;;12.60;59.30;;;;;;5132464;28;20444;-76
2021/04/10 04:59:35;;;;;;;23.20;21.80;;;12.50;59.40;;;;;;5133088;27;20471;-75
2021/04/10 05:02:01;;;;;;;24.03;22.70;;;12.50;59.40;;;;;;5132971;28;20941;-75
2021/04/10 05:04:28;;;;;;;24.00;22.70;;;12.50;59.90;;;;;;5133092;27;20458;-75
2021/04/10 05:06:55;;;;;;;24.90;23.33;;;12.40;60.80;;;;;;5132507;28;20538;-76
2021/04/10 05:09:22;;;;;;;25.57;23.60;;;12.30;62.00;;;;;;5132582;28;20530;-75
2021/04/10 05:11:50;;;;;;;23.70;22.40;;;12.30;63.80;;;;;;5132838;27;20455;-75
2021/04/10 05:14:16;;;;;;;25.10;23.70;;;12.20;65.00;;;;;;5132961;28;20558;-75
2021/04/10 05:16:42;;;;;;;24.60;23.10;;;12.10;65.90;;;;;;5132152;27;20280;-77
2021/04/10 05:19:10;;;;;;;24.10;22.80;;;12.00;66.30;;;;;;5133037;28;20631;-76
2021/04/10 05:21:36;;;;;;;24.53;23.00;;;11.90;66.80;;;;;;5132925;28;20534;-75
2021/04/10 05:24:03;;;;;;;23.42;22.23;;;11.90;67.10;;;;;;5132912;27;20538;-75
2021/04/10 05:26:30;;;;;;;25.35;23.73;;;11.80;67.10;;;;;;5132220;28;20200;-76
2021/04/10 05:28:56;;;;;;;24.07;22.67;;;11.80;66.80;;;;;;5132749;28;20202;-75
2021/04/10 05:31:23;;;;;;;24.93;23.30;;;11.80;66.90;;;;;;5132907;27;20648;-76
2021/04/10 05:33:50;;;;;;;25.27;23.87;;;11.80;66.70;;;;;;5135684;27;20872;-76
2021/04/10 05:36:16;;;;;;;22.90;21.67;;;11.90;66.40;;;;;;5136332;27;20451;-75
2021/04/10 05:38:43;;;;;;;24.00;22.50;;;11.90;66.00;;;;;;5136721;27;20193;-76
2021/04/10 05:41:09;;;;;;;24.05;22.50;;;12.00;66.00;;;;;;5136545;27;20478;-76
2021/04/10 05:43:36;;;;;;;24.03;22.73;;;11.90;66.30;;;;;;5136646;27;20660;-75
2021/04/10 05:46:03;;;;;;;25.50;23.87;;;11.90;67.00;;;;;;5136301;27;20534;-76
2021/04/10 05:48:30;;;;;;;23.73;22.23;;;11.90;65.80;;;;;;5136359;27;20940;-75
2021/04/10 05:50:56;;;;;;;23.03;21.67;;;12.00;64.90;;;;;;5136407;27;20463;-76
2021/04/10 05:53:23;;;;;;;22.63;21.33;;;12.00;64.60;;;;;;5136412;27;20451;-77
2021/04/10 05:55:49;;;;;;;22.80;21.33;;;12.00;64.50;;;;;;5135824;27;20519;-75
2021/04/10 05:58:15;;;;;;;23.13;21.90;;;12.00;64.20;;;;;;5136456;27;20866;-76
2021/04/10 06:00:43;;;;;;;24.90;23.57;;;12.10;64.40;;;;;;5135993;27;20575;-76
2021/04/10 06:03:09;;;;;;;24.03;22.30;;;12.10;63.60;;;;;;5136182;27;20612;-76
2021/04/10 06:05:35;;;;;;;22.93;21.83;;;12.10;63.30;;;;;;5135648;27;20993;-77
2021/04/10 06:08:02;;;;;;;24.03;22.73;;;12.20;63.20;;;;;;5136177;27;21047;-76
2021/04/10 06:10:28;;;;;;;23.37;22.10;;;12.30;62.80;;;;;;5135614;27;20478;-75
2021/04/10 06:12:55;;;;;;;23.13;21.93;;;12.40;62.00;;;;;;5135915;27;20459;-76
2021/04/10 06:15:21;;;;;;;23.20;21.80;;;12.40;62.20;;;;;;5135461;27;20451;-75
2021/04/10 06:17:48;;;;;;;23.53;22.13;;;12.50;61.80;;;;;;5135880;27;20444;-76
2021/04/10 06:20:18;;;;;;;24.17;22.77;;;12.50;61.80;;;;;;5135826;27;20554;-76
2021/04/10 06:22:44;;;;;;;24.07;22.50;;;12.50;62.40;;;;;;5135762;27;20451;-75
2021/04/10 06:25:11;;;;;;;23.77;22.40;;;12.50;61.80;;;;;;5135732;27;20508;-76
2021/04/10 06:27:38;;;;;;;25.33;23.27;;;12.50;61.90;;;;;;5135274;27;20808;-75
2021/04/10 06:30:07;;;;;;;23.40;21.90;;;12.50;61.90;;;;;;5135724;27;20859;-76
2021/04/10 06:32:33;;;;;;;24.07;22.40;;;12.40;62.30;;;;;;5135717;27;20451;-76
2021/04/10 06:35:01;;;;;;;23.40;22.10;;;12.50;62.10;;;;;;5135594;27;20446;-76
2021/04/10 06:37:27;;;;;;;24.07;22.77;;;12.50;62.20;;;;;;5134974;27;20455;-76
2021/04/10 06:39:54;;;;;;;23.80;22.37;;;12.70;62.20;;;;;;5135187;27;20479;-76
2021/04/10 06:42:21;;;;;;;24.20;22.70;;;12.70;61.70;;;;;;5135540;27;20882;-75
2021/04/10 06:44:47;;;;;;;23.57;22.40;;;12.80;61.80;;;;;;5135112;27;20948;-76
2021/04/10 06:47:18;;;;;;;24.10;22.50;;;12.80;61.60;;;;;;5134778;27;20455;-76
2021/04/10 06:49:46;;;;;;;23.90;22.20;;;12.80;61.60;;;;;;5135329;27;20550;-77
2021/04/10 06:52:16;;;;;;;24.30;22.90;;;12.90;61.40;;;;;;5135454;27;20550;-76
2021/04/10 06:54:49;;;;;;;23.10;21.80;;;12.90;61.60;;;;;;5135368;27;20447;-77
2021/04/10 06:57:18;;;;;;;23.60;22.10;;;13.00;61.60;;;;;;5134690;27;20474;-76
2021/04/10 06:59:50;;;;;;;23.60;22.37;;;12.90;61.70;;;;;;5135089;27;20994;-76
2021/04/10 07:02:17;;;;;;;24.13;22.50;;;12.90;61.90;;;;;;5135200;27;20479;-77
2021/04/10 07:04:44;;;;;;;23.73;22.17;;;12.90;63.00;;;;;;5135040;27;20536;-76
2021/04/10 07:07:11;;;;;;;23.33;22.13;;;12.80;64.20;;;;;;5134509;27;20538;-76
2021/04/10 07:09:38;;;;;;;23.60;22.33;;;12.70;64.90;;;;;;5134375;27;20880;-75
2021/04/10 07:12:06;;;;;;;23.97;22.33;;;12.60;66.20;;;;;;5134974;27;20453;-77
2021/04/10 07:14:32;;;;;;;23.80;22.30;;;12.70;66.30;;;;;;5135024;27;20553;-77
2021/04/10 07:16:59;;;;;;;24.33;22.40;;;12.70;66.20;;;;;;5133933;27;20487;-76
2021/04/10 07:19:26;;;;;;;22.87;21.67;;;12.60;66.40;;;;;;5134594;27;20479;-76
2021/04/10 07:22:04;;;;;;;23.70;22.30;;;12.70;65.70;;;;;;5134553;27;20455;-76
2021/04/10 07:24:36;;;;;;;23.70;22.50;;;12.70;65.10;;;;;;5134699;27;20462;-76
2021/04/10 07:27:05;;;;;;;22.80;21.70;;;12.80;65.10;;;;;;5133953;27;20861;-76
2021/04/10 07:29:32;;;;;;;24.47;23.17;;;12.70;65.70;;;;;;5134277;27;20857;-76
2021/04/10 07:31:59;;;;;;;25.13;23.63;;;12.70;65.10;;;;;;5134306;27;20534;-76
2021/04/10 07:34:26;;;;;;;23.90;22.60;;;12.80;64.50;;;;;;5134522;27;20471;-77
2021/04/10 07:37:00;;;;;;;23.27;21.97;;;13.00;64.20;;;;;;5134144;27;20471;-76
2021/04/10 07:39:27;;;;;;;24.10;22.73;;;12.90;63.50;;;;;;5134162;27;20518;-76
2021/04/10 07:42:01;;;;;;;24.63;23.23;;;13.00;63.40;;;;;;5134337;27;20534;-76
2021/04/10 07:44:39;;;;;;;24.30;22.90;;;13.00;63.40;;;;;;5134196;27;20452;-76
2021/04/10 07:47:07;;;;;;;24.33;22.97;;;12.90;63.40;;;;;;5133593;27;20980;-77
2021/04/10 07:49:34;;;;;;;25.67;24.00;;;13.00;63.40;;;;;;5134057;27;20550;-76
2021/04/10 07:52:04;;;;;;;24.00;22.60;;;13.00;63.80;;;;;;5133841;27;20519;-76
2021/04/10 07:54:31;;;;;;;23.53;22.07;;;13.00;63.10;;;;;;5133729;27;20452;-77
2021/04/10 07:57:00;;;;;;;24.10;22.80;;;13.00;62.90;;;;;;5132666;27;20455;-76
2021/04/10 07:59:28;;;;;;;24.50;23.10;;;13.00;63.30;;;;;;5134076;27;20485;-77
2021/04/10 08:02:08;;;;;;;23.23;22.03;;;13.00;63.20;;;;;;5133850;27;20526;-77
2021/04/10 08:04:35;;;;;;;24.10;22.70;;;13.00;63.40;;;;;;5134175;27;20530;-77
2021/04/10 08:07:01;;;;;;;24.60;23.20;;;13.00;64.10;;;;;;5133566;27;20509;-77
2021/04/10 08:09:33;;;;;;;23.30;22.00;;;13.00;64.80;;;;;;5133568;27;20852;-76
2021/04/10 08:12:00;;;;;;;23.67;22.40;;;13.00;66.00;;;;;;5133842;27;20460;-77
2021/04/10 08:14:39;;;;;;;23.03;21.83;;;12.90;66.70;;;;;;5133678;27;20515;-76
2021/04/10 08:17:07;;;;;;;24.50;23.10;;;12.80;67.40;;;;;;5133404;27;20451;-76
2021/04/10 08:19:34;;;;;;;24.47;23.17;;;12.80;68.00;;;;;;5133482;27;20483;-76
2021/04/10 08:22:01;;;;;;;23.80;22.30;;;12.80;68.00;;;;;;5133217;27;20487;-77
2021/04/10 08:24:31;;;;;;;24.50;23.10;;;12.80;67.70;;;;;;5133551;27;20546;-76
2021/04/10 08:27:01;;;;;;;23.93;22.63;;;12.80;68.20;;;;;;5133049;27;20550;-77
2021/04/10 08:29:27;;;;;;;24.10;22.77;;;12.90;67.00;;;;;;5133443;27;20467;-76
2021/04/10 08:31:54;;;;;;;24.50;23.10;;;12.90;66.60;;;;;;5133435;27;20448;-77
2021/04/10 08:34:22;;;;;;;23.10;21.90;;;12.90;66.10;;;;;;5133241;27;20455;-77
2021/04/10 08:36:55;;;;;;;23.33;22.10;;;13.00;66.00;;;;;;5132838;27;20544;-76
2021/04/10 08:39:27;;;;;;;23.77;22.57;;;13.20;65.10;;;;;;5133384;27;20503;-76
2021/04/10 08:41:57;;;;;;;23.73;22.20;;;13.20;65.20;;;;;;5133391;27;20469;-76
2021/04/10 08:44:28;;;;;;;24.00;22.70;;;13.30;64.60;;;;;;5133229;27;20455;-76
2021/04/10 08:46:55;;;;;;;24.43;23.03;;;13.30;64.60;;;;;;5132862;27;20459;-77
2021/04/10 08:49:23;;;;;;;27.70;26.30;;;13.40;64.40;;;;;;5133069;27;20447;-77
2021/04/10 08:51:56;;;;;;;23.53;22.33;;;13.50;63.70;;;;;;5133256;27;20451;-76
2021/04/10 08:54:22;;;;;;;24.63;22.93;;;13.50;63.40;;;;;;5133125;28;20455;-76
2021/04/10 08:56:51;;;;;;;23.60;22.30;;;13.40;64.20;;;;;;5132486;28;20569;-76
2021/04/10 08:59:19;;;;;;;24.27;22.77;;;13.50;63.40;;;;;;5132809;28;20501;-80
2021/04/10 09:02:05;;;;;;;24.43;23.03;;;13.50;63.30;;;;;;5133121;28;20498;-76
2021/04/10 09:05:05;;;;;;;24.53;23.23;;;13.60;63.40;;;;;;5133205;28;20503;-76
2021/04/10 09:08:07;;;;;;;23.57;22.17;;;13.60;63.00;;;;;;5135108;27;20975;-76
2021/04/10 09:11:01;;;;;;;23.23;22.03;;;13.70;63.20;;;;;;5136774;27;20462;-76
2021/04/10 09:13:43;;;;;;;22.83;21.63;;;13.70;63.90;;;;;;5118497;27;20458;-77
2021/04/10 09:16:28;;;;;;;24.30;22.90;;;13.90;62.50;;;;;;5136288;27;20521;-76
2021/04/10 09:18:57;;;;;;;24.20;22.90;;;13.90;62.50;;;;;;5137222;27;20447;-76
2021/04/10 09:21:36;;;;;;;24.47;22.97;;;14.00;62.00;;;;;;5137171;27;20522;-76
2021/04/10 09:24:32;;;;;;;23.43;22.23;;;14.10;64.10;;;;;;5137125;27;20447;-76
2021/04/10 09:27:05;;;;;;;23.93;22.60;;;14.10;62.20;;;;;;5136761;27;20500;-76
2021/04/10 09:29:52;;;;;;;22.60;21.50;;;14.10;62.10;;;;;;5136889;27;20976;-76
2021/04/10 09:32:38;;;;;;;22.70;21.50;;;14.10;60.60;;;;;;5136861;27;20978;-77
2021/04/10 09:35:13;;;;;;;23.90;22.50;;;14.10;60.60;;;;;;5136777;27;20526;-78
2021/04/10 09:37:48;;;;;;;22.93;21.67;;;14.20;60.00;;;;;;5136369;27;20581;-76
2021/04/10 09:40:20;;;;;;;23.93;22.20;;;14.20;59.30;;;;;;5136646;27;20474;-76
2021/04/10 09:42:49;;;;;;;23.90;22.50;;;14.20;59.30;;;;;;5136674;27;20482;-76
2021/04/10 09:45:17;;;;;;;24.10;22.80;;;14.30;58.90;;;;;;5136404;27;20447;-77
2021/04/10 09:48:18;;;;;;;23.50;22.10;;;14.40;58.80;;;;;;5136060;27;20503;-76
2021/04/10 09:50:46;;;;;;;23.53;22.23;;;14.50;58.70;;;;;;5136331;27;20471;-76
2021/04/10 09:53:15;;;;;;;24.30;23.00;;;14.50;59.20;;;;;;5136754;27;20447;-76
2021/04/10 09:55:44;;;;;;;22.83;21.67;;;14.50;58.60;;;;;;5135737;27;20546;-75
2021/04/10 09:58:12;;;;;;;23.30;21.90;;;14.50;58.40;;;;;;5136382;27;20993;-76
2021/04/10 10:00:41;;;;;;;23.17;21.97;;;14.60;58.30;;;;;;5136045;27;20540;-76
2021/04/10 10:03:11;;;;;;;24.10;22.80;;;14.70;58.50;;;;;;5136305;27;20454;-76
2021/04/10 10:05:39;;;;;;;22.70;21.53;;;14.70;59.80;;;;;;5135642;27;20447;-76
2021/04/10 10:08:07;;;;;;;22.17;20.97;;;14.70;57.70;;;;;;5136116;27;20455;-76
2021/04/10 10:10:36;;;;;;;22.73;21.43;;;14.80;57.80;;;;;;5135487;27;20498;-76
2021/04/10 10:13:04;;;;;;;22.90;21.77;;;14.90;58.70;;;;;;5135861;27;20497;-76
2021/04/10 10:15:31;;;;;;;23.40;21.90;;;14.90;57.90;;;;;;5135289;27;20500;-75
2021/04/10 10:17:58;;;;;;;23.20;22.00;;;14.90;57.30;;;;;;5135405;27;20474;-76
2021/04/10 10:20:25;;;;;;;22.70;21.50;;;15.00;57.30;;;;;;5135545;27;20900;-77
2021/04/10 10:22:52;;;;;;;22.93;21.73;;;15.00;57.20;;;;;;5135819;27;20454;-76
2021/04/10 10:25:19;;;;;;;24.03;22.70;;;15.00;59.20;;;;;;5135790;27;20483;-77
2021/04/10 10:27:48;;;;;;;23.70;22.30;;;15.10;57.20;;;;;;5135350;27;20538;-75
2021/04/10 10:30:15;;;;;;;23.33;22.03;;;15.30;57.10;;;;;;5135732;27;20520;-76
2021/04/10 10:32:44;;;;;;;24.63;23.23;;;15.50;56.30;;;;;;5135582;27;20456;-77
2021/04/10 10:35:12;;;;;;;22.90;21.60;;;15.60;55.60;;;;;;5135428;27;20454;-75
2021/04/10 10:37:39;;;;;;;22.73;21.53;;;15.70;55.30;;;;;;5135205;27;20462;-76
2021/04/10 10:40:06;;;;;;;23.30;21.90;;;15.80;54.80;;;;;;5135249;27;21060;-76
2021/04/10 10:42:33;;;;;;;23.87;22.57;;;15.80;55.40;;;;;;5135520;27;20526;-77
2021/04/10 10:45:00;;;;;;;24.33;22.93;;;15.60;57.90;;;;;;5135305;27;20447;-76
2021/04/10 10:47:27;;;;;;;23.60;22.30;;;15.70;55.70;;;;;;5134762;27;20451;-76
2021/04/10 10:49:54;;;;;;;22.83;21.63;;;15.70;54.90;;;;;;5135255;27;20969;-76
2021/04/10 10:52:20;;;;;;;23.43;22.00;;;15.80;54.70;;;;;;5135064;27;20539;-76
2021/04/10 10:54:48;;;;;;;23.50;22.10;;;15.90;54.30;;;;;;5135096;27;20475;-77
2021/04/10 10:57:15;;;;;;;23.13;21.40;;;16.10;54.30;;;;;;5134651;27;20451;-77
2021/04/10 10:59:42;;;;;;;23.77;22.30;;;16.20;54.80;;;;;;5134898;27;20475;-76
2021/04/10 11:02:10;;;;;;;25.20;23.70;;;16.40;53.50;;;;;;5135016;27;20944;-76
2021/04/10 11:04:41;;;;;;;25.00;23.50;;;16.60;53.50;;;;;;5136170;27;20882;-77
2021/04/10 11:07:08;;;;;;;23.17;21.90;;;16.80;53.10;;;;;;5136164;27;20538;-77
2021/04/10 11:09:38;;;;;;;23.83;22.43;;;17.00;52.10;;;;;;5134773;27;20550;-76
2021/04/10 11:12:11;;;;;;;23.73;22.43;;;17.20;51.90;;;;;;5135088;27;20448;-77
2021/04/10 11:14:41;;;;;;;25.33;23.93;;;17.20;51.80;;;;;;5134856;27;20532;-76
2021/04/10 11:17:09;;;;;;;24.17;22.57;;;17.40;51.20;;;;;;5133973;27;20861;-77
2021/04/10 11:19:38;;;;;;;24.20;22.70;;;17.50;51.20;;;;;;5134734;27;20597;-76
2021/04/10 11:22:06;;;;;;;23.37;22.07;;;17.70;51.00;;;;;;5134816;27;20538;-77
2021/04/10 11:24:37;;;;;;;24.33;22.73;;;17.70;50.70;;;;;;5134790;27;20443;-76
2021/04/10 11:27:12;;;;;;;23.93;22.53;;;17.60;50.80;;;;;;5134081;27;20440;-77
2021/04/10 11:29:47;;;;;;;24.67;23.17;;;17.80;50.40;;;;;;5134571;27;20805;-76
2021/04/10 11:32:16;;;;;;;23.87;22.47;;;17.80;50.20;;;;;;5134556;27;20514;-77
2021/04/10 11:35:02;;;;;;;22.93;21.53;;;18.00;50.10;;;;;;5134666;27;20497;-76
2021/04/10 11:37:41;;;;;;;23.20;21.90;;;18.20;49.10;;;;;;5133933;27;20447;-76
2021/04/10 11:40:09;;;;;;;23.00;21.70;;;18.20;50.00;;;;;;5134332;27;20569;-77
2021/04/10 11:42:37;;;;;;;23.40;22.10;;;18.40;49.40;;;;;;5134410;27;20486;-76
2021/04/10 11:45:07;;;;;;;24.33;22.87;;;18.50;48.50;;;;;;5134227;27;20448;-76
2021/04/10 11:47:35;;;;;;;23.60;22.30;;;18.70;48.20;;;;;;5133681;27;20451;-77
2021/04/10 11:50:12;;;;;;;23.77;22.40;;;18.50;48.00;;;;;;5134208;27;20474;-76
2021/04/10 11:52:39;;;;;;;23.67;22.37;;;18.40;48.30;;;;;;5134109;27;20947;-76
2021/04/10 11:55:09;;;;;;;23.20;21.90;;;18.50;48.80;;;;;;5134349;27;20546;-76
2021/04/10 11:57:37;;;;;;;22.60;21.30;;;18.60;48.40;;;;;;5133463;27;20451;-77
2021/04/10 12:00:10;;;;;;;23.50;22.20;;;18.60;48.40;;;;;;5133839;27;20979;-76
2021/04/10 12:02:38;;;;;;;23.50;22.20;;;18.60;48.20;;;;;;5133952;27;20455;-76
2021/04/10 12:05:28;;;;;;;24.03;22.37;;;18.80;47.70;;;;;;5133851;27;20823;-77
2021/04/10 12:08:12;;;;;;;24.70;23.20;;;19.10;47.00;;;;;;5133733;27;20573;-76
2021/04/10 12:10:43;;;;;;;23.67;22.33;;;19.00;48.70;;;;;;5133240;27;20467;-77
2021/04/10 12:13:11;;;;;;;26.50;25.00;;;19.10;48.30;;;;;;5133563;27;20515;-77
2021/04/10 12:15:39;;;;;;;24.00;22.50;;;19.30;48.10;;;;;;5133104;27;20835;-76
2021/04/10 12:18:07;;;;;;;23.30;22.00;;;19.40;47.20;;;;;;5133878;27;20944;-77
2021/04/10 12:20:35;;;;;;;24.20;22.90;;;19.60;45.80;;;;;;5133450;27;20481;-76
2021/04/10 12:23:01;;;;;;;25.67;24.13;;;19.50;46.10;;;;;;5133747;27;20451;-76
2021/04/10 12:25:28;;;;;;;24.40;23.03;;;19.40;46.00;;;;;;5132893;27;20526;-76
2021/04/10 12:27:54;;;;;;;23.60;22.30;;;19.60;46.00;;;;;;5133434;27;20724;-76
2021/04/10 12:30:21;;;;;;;23.83;22.23;;;19.80;45.40;;;;;;5133580;27;20496;-77
2021/04/10 12:32:48;;;;;;;24.30;22.90;;;19.90;45.90;;;;;;5133389;27;20451;-76
2021/04/10 12:35:15;;;;;;;24.30;22.90;;;19.90;45.00;;;;;;5133362;27;20451;-76
2021/04/10 12:37:42;;;;;;;24.07;22.50;;;19.90;44.30;;;;;;5132938;27;20919;-76